Time;durP1;ratioP1;P1;durP2;ratioP2;P2;SDS_P1;SDS_P2;PMS_P1;PMS_P2;Temp;Humidity;BMP_temperature;BMP_pressure;BME280_temperature;BME280_humidity;BME280_pressure;Samples;Min_cycle;Max_cycle;Signal;HPM_P1;HPM_P2
2022/09/11 00:01:21;;;;;;;36.50;24.58;;;14.90;99.90;;;;;;5052941;28;20059;-69
2022/09/11 00:03:47;;;;;;;38.05;24.88;;;14.90;99.90;;;;;;5051721;28;20533;-69
2022/09/11 00:06:15;;;;;;;36.58;24.88;;;14.90;99.90;;;;;;5052958;28;20045;-69
2022/09/11 00:08:41;;;;;;;37.25;25.08;;;14.90;99.90;;;;;;5051470;28;20128;-69
2022/09/11 00:11:10;;;;;;;36.40;25.73;;;14.80;99.90;;;;;;5052425;28;20498;-69
2022/09/11 00:13:37;;;;;;;35.97;24.63;;;14.80;99.90;;;;;;5052975;28;20029;-69
2022/09/11 00:16:06;;;;;;;38.67;24.73;;;14.90;99.90;;;;;;5052981;28;20572;-69
2022/09/11 00:18:34;;;;;;;37.65;25.63;;;14.70;99.90;;;;;;5052599;28;20552;-69
2022/09/11 00:21:01;;;;;;;34.42;23.92;;;14.80;99.90;;;;;;5051351;28;20521;-69
2022/09/11 00:23:27;;;;;;;32.53;23.13;;;14.90;99.90;;;;;;5052575;28;20041;-69
2022/09/11 00:25:53;;;;;;;32.60;23.38;;;14.80;99.90;;;;;;5051501;28;20510;-69
2022/09/11 00:28:21;;;;;;;32.65;23.92;;;14.90;99.90;;;;;;5052537;28;20122;-69
2022/09/11 00:31:00;;;;;;;36.75;24.95;;;15.00;99.90;;;;;;5051048;28;20045;-69
2022/09/11 00:33:26;;;;;;;38.22;26.20;;;14.80;99.90;;;;;;5034694;28;20120;-69
2022/09/11 00:35:58;;;;;;;41.15;29.02;;;14.90;99.90;;;;;;5051136;28;20041;-69
2022/09/11 00:38:28;;;;;;;44.47;30.02;;;14.80;99.90;;;;;;5052045;28;20033;-69
2022/09/11 00:40:57;;;;;;;43.70;28.25;;;14.80;99.90;;;;;;5052210;28;20041;-69
2022/09/11 00:43:23;;;;;;;47.58;32.10;;;15.00;99.90;;;;;;5051563;28;20533;-69
2022/09/11 00:45:58;;;;;;;51.00;32.45;;;14.90;99.90;;;;;;5051249;28;20452;-69
2022/09/11 00:48:29;;;;;;;48.28;28.75;;;15.10;99.90;;;;;;5052145;28;20041;-70
2022/09/11 00:50:58;;;;;;;47.85;31.13;;;14.90;99.90;;;;;;5052114;28;20044;-70
2022/09/11 00:53:29;;;;;;;44.45;29.98;;;14.90;99.90;;;;;;5052186;28;20067;-70
2022/09/11 00:55:59;;;;;;;43.53;29.75;;;14.90;99.90;;;;;;5052044;28;20364;-69
2022/09/11 00:58:29;;;;;;;45.92;29.77;;;14.90;99.90;;;;;;5051842;28;20507;-69
2022/09/11 01:00:55;;;;;;;45.38;29.85;;;14.90;99.90;;;;;;5051730;28;20045;-69
2022/09/11 01:03:23;;;;;;;42.95;28.70;;;15.00;99.90;;;;;;5051815;28;20585;-69
2022/09/11 01:05:51;;;;;;;39.53;28.10;;;14.90;99.90;;;;;;5052056;28;20064;-69
2022/09/11 01:08:17;;;;;;;43.60;29.50;;;14.80;99.90;;;;;;5050338;28;20066;-70
2022/09/11 01:11:03;;;;;;;45.10;29.38;;;15.10;99.90;;;;;;5051573;28;20033;-69
2022/09/11 01:13:42;;;;;;;42.65;26.45;;;14.80;99.90;;;;;;5050759;28;20053;-69
2022/09/11 01:16:18;;;;;;;42.80;26.58;;;14.80;99.90;;;;;;5051761;28;20041;-69
2022/09/11 01:18:55;;;;;;;45.78;29.55;;;14.90;99.90;;;;;;5050372;28;20072;-70
2022/09/11 01:21:35;;;;;;;42.88;29.00;;;15.00;99.90;;;;;;5051539;28;20045;-70
2022/09/11 01:24:37;;;;;;;43.08;29.45;;;14.80;99.90;;;;;;5050454;28;20119;-70
2022/09/11 01:27:35;;;;;;;44.92;28.02;;;14.80;99.90;;;;;;5050566;28;20049;-69
2022/09/11 01:30:06;;;;;;;40.92;28.60;;;14.70;99.90;;;;;;5051329;28;20041;-69
2022/09/11 01:33:03;;;;;;;44.80;28.80;;;14.80;99.90;;;;;;5051505;28;20102;-69
2022/09/11 01:35:53;;;;;;;41.17;28.73;;;14.80;99.90;;;;;;5070291;28;20086;-69
2022/09/11 01:38:35;;;;;;;43.33;27.08;;;14.80;99.90;;;;;;5071248;28;20094;-69
2022/09/11 01:41:15;;;;;;;41.60;27.90;;;14.70;99.90;;;;;;5071004;28;20047;-69
2022/09/11 01:43:55;;;;;;;41.10;26.73;;;14.70;99.90;;;;;;5071560;28;20055;-69
2022/09/11 01:46:23;;;;;;;41.72;26.63;;;14.80;99.90;;;;;;5071600;28;20398;-70
2022/09/11 01:49:00;;;;;;;40.83;26.50;;;14.70;99.90;;;;;;5071281;28;20485;-69
2022/09/11 01:51:31;;;;;;;41.30;27.80;;;14.80;99.90;;;;;;5071336;28;20055;-70
2022/09/11 01:53:59;;;;;;;46.20;28.98;;;14.60;99.90;;;;;;5071689;28;20101;-69
2022/09/11 01:56:47;;;;;;;38.67;26.75;;;14.70;99.90;;;;;;5074692;28;20674;-69
2022/09/11 01:59:16;;;;;;;39.03;27.05;;;14.60;99.90;;;;;;5074963;28;20474;-70
2022/09/11 02:01:50;;;;;;;39.95;27.30;;;14.60;99.90;;;;;;5075245;28;20036;-69
2022/09/11 02:04:32;;;;;;;40.90;27.23;;;14.80;99.90;;;;;;5075410;28;20043;-69
2022/09/11 02:07:04;;;;;;;43.70;28.17;;;14.70;99.90;;;;;;5075226;28;20040;-69
2022/09/11 02:09:38;;;;;;;38.80;26.50;;;14.50;99.90;;;;;;5074903;28;20044;-69
2022/09/11 02:12:08;;;;;;;39.78;28.92;;;14.70;99.90;;;;;;5074987;28;20045;-69
2022/09/11 02:14:49;;;;;;;40.70;28.67;;;14.60;99.90;;;;;;5075267;28;20048;-69
2022/09/11 02:17:19;;;;;;;44.20;27.85;;;14.60;99.90;;;;;;5075043;28;20029;-69
2022/09/11 02:19:45;;;;;;;41.88;27.73;;;14.60;99.90;;;;;;5074769;28;20581;-69
2022/09/11 02:22:10;;;;;;;36.13;25.60;;;14.50;99.90;;;;;;5074809;28;20095;-69
2022/09/11 02:24:37;;;;;;;39.38;26.33;;;14.50;99.90;;;;;;5074744;28;20040;-69
2022/09/11 02:27:10;;;;;;;41.45;28.05;;;14.50;99.90;;;;;;5074921;28;20041;-69
2022/09/11 02:29:38;;;;;;;42.63;27.98;;;14.70;99.90;;;;;;5074535;28;20037;-69
2022/09/11 02:32:04;;;;;;;41.05;26.48;;;14.70;99.90;;;;;;5074776;28;20051;-69
2022/09/11 02:34:33;;;;;;;43.55;27.95;;;14.50;99.90;;;;;;5074723;28;20124;-70
2022/09/11 02:37:17;;;;;;;38.65;26.85;;;14.50;99.90;;;;;;5095523;22;20494;-65
2022/09/11 02:40:01;;;;;;;37.28;26.13;;;14.60;99.90;;;;;;5034048;28;20053;-65
2022/09/11 02:42:45;;;;;;;;;;;14.70;99.90;;;;;;5034643;28;20129;-67
2022/09/11 02:45:48;;;;;;;36.63;24.73;;;14.40;99.90;;;;;;5034522;28;19917;-67
2022/09/11 02:48:35;;;;;;;39.22;25.48;;;14.40;99.90;;;;;;5034564;28;20046;-67
2022/09/11 02:51:16;;;;;;;39.65;27.23;;;14.60;99.90;;;;;;5034217;28;20053;-67
2022/09/11 02:54:14;;;;;;;39.33;25.38;;;14.40;99.90;;;;;;5034324;28;20052;-67
2022/09/11 02:56:51;;;;;;;35.40;24.63;;;14.60;99.90;;;;;;5034581;28;20056;-67
2022/09/11 02:59:20;;;;;;;35.33;25.35;;;14.40;99.90;;;;;;5034045;28;20073;-67
2022/09/11 03:01:52;;;;;;;33.20;23.45;;;14.40;99.90;;;;;;5034070;28;20045;-67
2022/09/11 03:04:21;;;;;;;35.55;22.63;;;14.40;99.90;;;;;;5034410;28;20044;-67
2022/09/11 03:06:48;;;;;;;33.42;23.05;;;14.50;99.90;;;;;;5032321;28;20060;-67
2022/09/11 03:09:15;;;;;;;31.85;22.67;;;14.50;99.90;;;;;;5034025;28;20056;-67
2022/09/11 03:11:42;;;;;;;27.63;20.92;;;14.60;99.90;;;;;;5034165;28;20041;-67
2022/09/11 03:14:07;;;;;;;28.42;20.17;;;14.50;99.90;;;;;;5034204;28;20037;-67
2022/09/11 03:16:33;;;;;;;29.35;21.00;;;14.60;99.90;;;;;;5033944;28;20404;-67
2022/09/11 03:18:58;;;;;;;25.20;19.55;;;14.50;99.90;;;;;;5034099;28;20044;-67
2022/09/11 03:21:24;;;;;;;28.35;22.17;;;14.50;99.90;;;;;;5033604;28;20041;-67
2022/09/11 03:23:49;;;;;;;26.55;20.90;;;14.50;99.90;;;;;;5033957;28;20052;-67
2022/09/11 03:26:16;;;;;;;28.00;20.42;;;14.50;99.90;;;;;;5033870;28;20056;-67
2022/09/11 03:28:43;;;;;;;30.95;22.52;;;14.60;99.90;;;;;;5032519;28;20049;-67
2022/09/11 03:31:09;;;;;;;32.65;22.50;;;14.60;99.90;;;;;;5033409;28;20112;-67
2022/09/11 03:33:34;;;;;;;30.50;22.33;;;14.70;99.90;;;;;;5033637;28;20117;-67
2022/09/11 03:36:00;;;;;;;37.03;24.42;;;14.70;99.90;;;;;;5033756;28;20103;-67
2022/09/11 03:38:26;;;;;;;30.33;22.70;;;14.50;99.90;;;;;;5033571;28;20574;-67
2022/09/11 03:40:53;;;;;;;31.23;22.42;;;14.50;99.90;;;;;;5033401;28;20402;-67
2022/09/11 03:43:19;;;;;;;28.98;21.52;;;14.40;99.90;;;;;;5033620;28;20187;-67
2022/09/11 03:45:48;;;;;;;28.85;21.92;;;14.60;99.90;;;;;;5033498;28;20550;-67
2022/09/11 03:48:14;;;;;;;29.80;20.75;;;14.50;99.90;;;;;;5033458;28;20041;-67
2022/09/11 03:50:40;;;;;;;28.60;20.52;;;14.40;99.90;;;;;;5032003;28;20415;-66
2022/09/11 03:53:05;;;;;;;29.20;21.33;;;14.40;99.90;;;;;;5033469;28;20410;-66
2022/09/11 03:55:31;;;;;;;30.40;21.45;;;14.40;99.90;;;;;;5033185;28;20060;-67
2022/09/11 03:57:57;;;;;;;27.60;19.15;;;14.40;99.90;;;;;;5033228;28;20044;-66
2022/09/11 04:00:24;;;;;;;23.70;18.35;;;14.30;99.90;;;;;;5032790;28;20069;-67
2022/09/11 04:02:49;;;;;;;23.90;19.23;;;14.50;99.90;;;;;;5031858;28;20045;-66
2022/09/11 04:05:15;;;;;;;23.40;18.38;;;14.20;99.90;;;;;;5033191;28;20080;-67
2022/09/11 04:07:41;;;;;;;18.90;16.73;;;14.30;99.90;;;;;;5033068;28;20087;-67
2022/09/11 04:10:07;;;;;;;22.85;17.35;;;14.30;99.90;;;;;;5032669;28;20088;-66
2022/09/11 04:12:32;;;;;;;23.67;18.35;;;14.30;99.90;;;;;;5032890;28;20044;-67
2022/09/11 04:14:58;;;;;;;22.67;17.00;;;14.30;99.90;;;;;;5032750;28;20037;-67
2022/09/11 04:17:23;;;;;;;24.42;18.17;;;14.20;99.90;;;;;;5032048;28;20033;-66
2022/09/11 04:19:49;;;;;;;21.23;16.25;;;14.30;99.90;;;;;;5032694;28;20636;-67
2022/09/11 04:22:14;;;;;;;23.88;18.17;;;14.30;99.90;;;;;;5032824;28;20511;-67
2022/09/11 04:24:40;;;;;;;20.58;16.63;;;14.30;99.90;;;;;;5032703;28;20050;-67
2022/09/11 04:27:05;;;;;;;22.35;17.48;;;14.50;99.90;;;;;;5031434;28;20176;-66
2022/09/11 04:29:32;;;;;;;20.48;16.10;;;14.40;99.90;;;;;;5032135;28;20304;-67
2022/09/11 04:31:58;;;;;;;20.60;16.65;;;14.30;99.90;;;;;;5032792;28;20112;-66
2022/09/11 04:34:24;;;;;;;23.13;18.15;;;14.20;99.90;;;;;;5032614;28;20120;-67
2022/09/11 04:36:49;;;;;;;23.30;18.17;;;14.30;99.90;;;;;;5031263;28;20046;-66
2022/09/11 04:39:15;;;;;;;23.52;18.48;;;14.30;99.90;;;;;;5032135;28;20045;-67
2022/09/11 04:41:40;;;;;;;24.15;19.25;;;14.30;99.90;;;;;;5032410;28;20041;-67
2022/09/11 04:44:06;;;;;;;24.77;19.50;;;14.10;99.90;;;;;;5031302;28;20048;-67
2022/09/11 04:46:32;;;;;;;25.98;20.27;;;14.10;99.90;;;;;;5032509;28;20048;-67
2022/09/11 04:49:03;;;;;;;28.48;20.80;;;14.10;99.90;;;;;;5030989;28;20046;-67
2022/09/11 04:51:31;;;;;;;30.88;21.42;;;14.30;99.90;;;;;;5030672;28;20053;-67
2022/09/11 04:53:58;;;;;;;27.80;20.65;;;14.20;99.90;;;;;;5030909;28;20099;-67
2022/09/11 04:56:28;;;;;;;25.90;17.98;;;14.20;99.90;;;;;;5032047;28;20026;-67
2022/09/11 04:59:02;;;;;;;24.35;18.50;;;14.10;99.90;;;;;;5030730;28;20048;-67
2022/09/11 05:01:29;;;;;;;26.80;19.08;;;14.10;99.90;;;;;;5031915;28;20045;-67
2022/09/11 05:03:55;;;;;;;25.33;19.23;;;14.10;99.90;;;;;;5031941;28;20041;-66
2022/09/11 05:06:21;;;;;;;29.40;21.63;;;14.20;99.90;;;;;;5032060;28;20034;-67
2022/09/11 05:08:47;;;;;;;22.75;17.63;;;14.20;99.90;;;;;;5030667;28;20072;-66
2022/09/11 05:11:16;;;;;;;26.52;19.50;;;14.30;99.90;;;;;;5031649;28;20626;-67
2022/09/11 05:13:42;;;;;;;23.50;17.85;;;14.10;99.90;;;;;;5032005;28;20044;-67
2022/09/11 05:16:13;;;;;;;22.27;18.20;;;14.30;99.90;;;;;;5031969;28;20037;-66
2022/09/11 05:18:41;;;;;;;23.70;17.73;;;14.30;99.90;;;;;;5031893;28;20049;-66
2022/09/11 05:21:13;;;;;;;22.65;18.13;;;14.30;99.90;;;;;;5030510;28;20456;-66
2022/09/11 05:23:39;;;;;;;23.27;18.50;;;14.30;99.90;;;;;;5031742;28;20041;-66
2022/09/11 05:26:06;;;;;;;25.25;19.67;;;14.30;99.90;;;;;;5031958;28;20045;-67
2022/09/11 05:28:32;;;;;;;26.27;19.05;;;14.50;99.90;;;;;;5031483;28;20046;-67
2022/09/11 05:30:58;;;;;;;31.83;21.45;;;14.40;99.90;;;;;;5031487;28;20068;-67
2022/09/11 05:33:26;;;;;;;27.75;19.90;;;14.50;99.90;;;;;;5030425;28;20164;-66
2022/09/11 05:36:01;;;;;;;28.63;19.50;;;14.60;99.90;;;;;;5030413;28;20053;-66
2022/09/11 05:38:27;;;;;;;26.08;19.17;;;14.50;99.90;;;;;;5031454;28;20076;-67
2022/09/11 05:40:53;;;;;;;22.65;18.75;;;14.60;99.90;;;;;;5031570;28;20049;-66
2022/09/11 05:43:19;;;;;;;26.20;19.80;;;14.50;99.90;;;;;;5031779;28;20049;-67
2022/09/11 05:45:53;;;;;;;32.38;21.67;;;14.50;99.90;;;;;;5031530;28;20201;-66
2022/09/11 05:48:19;;;;;;;26.27;18.95;;;14.60;99.90;;;;;;5031482;28;20088;-66
2022/09/11 05:51:14;;;;;;;26.27;20.02;;;14.70;99.90;;;;;;5031183;28;20038;-67
2022/09/11 05:53:40;;;;;;;22.98;19.00;;;14.80;99.90;;;;;;5023319;28;20063;-67
2022/09/11 05:56:18;;;;;;;29.42;21.15;;;14.60;99.90;;;;;;5030232;28;20419;-67
2022/09/11 05:58:45;;;;;;;25.40;19.13;;;14.70;99.90;;;;;;5031395;28;20049;-67
2022/09/11 06:01:13;;;;;;;19.55;16.73;;;14.70;99.90;;;;;;5031029;28;20060;-67
2022/09/11 06:03:39;;;;;;;19.85;16.45;;;15.00;99.90;;;;;;5031401;28;20373;-66
2022/09/11 06:06:07;;;;;;;18.98;16.30;;;14.90;99.90;;;;;;5031590;28;20033;-66
2022/09/11 06:08:34;;;;;;;21.42;17.75;;;15.00;99.90;;;;;;5031316;28;20037;-67
2022/09/11 06:11:01;;;;;;;19.90;16.35;;;15.00;99.90;;;;;;5031141;28;20046;-67
2022/09/11 06:13:33;;;;;;;19.83;16.85;;;15.40;99.90;;;;;;5031273;28;20041;-67
2022/09/11 06:15:59;;;;;;;17.63;15.23;;;15.50;99.90;;;;;;5030065;28;20045;-67
2022/09/11 06:18:25;;;;;;;16.63;14.43;;;15.50;99.90;;;;;;5031450;28;20033;-66
2022/09/11 06:20:55;;;;;;;16.80;14.07;;;15.70;99.90;;;;;;5030942;28;20578;-67
2022/09/11 06:23:20;;;;;;;21.73;16.42;;;15.80;99.90;;;;;;5029969;28;20052;-67
2022/09/11 06:25:47;;;;;;;21.38;15.80;;;16.00;99.90;;;;;;5031191;28;20499;-67
2022/09/11 06:28:12;;;;;;;18.02;15.43;;;16.20;99.90;;;;;;5030991;28;20041;-66
2022/09/11 06:30:39;;;;;;;17.35;13.73;;;16.10;99.90;;;;;;5031050;28;20531;-67
2022/09/11 06:33:05;;;;;;;19.52;13.52;;;16.40;99.90;;;;;;5031342;28;20098;-67
2022/09/11 06:35:32;;;;;;;16.60;14.82;;;16.60;99.90;;;;;;5029888;28;20045;-67
2022/09/11 06:37:57;;;;;;;19.27;14.55;;;16.80;99.90;;;;;;5029764;28;20042;-67
2022/09/11 06:40:23;;;;;;;15.93;14.32;;;16.80;99.90;;;;;;5030884;28;20037;-67
2022/09/11 06:42:49;;;;;;;16.38;13.63;;;17.20;99.90;;;;;;5034603;28;20451;-67
2022/09/11 06:45:16;;;;;;;15.60;13.35;;;17.40;99.90;;;;;;5034587;28;20569;-66
2022/09/11 06:47:41;;;;;;;14.45;13.05;;;17.20;99.90;;;;;;5034624;28;20045;-67
2022/09/11 06:50:07;;;;;;;15.43;12.93;;;17.70;99.90;;;;;;5034119;28;20048;-66
2022/09/11 06:52:34;;;;;;;12.88;11.57;;;17.50;99.90;;;;;;5034436;28;20041;-67
2022/09/11 06:55:00;;;;;;;13.07;11.70;;;17.90;99.90;;;;;;5034423;28;20033;-66
2022/09/11 06:57:27;;;;;;;12.68;11.45;;;17.90;99.90;;;;;;5034213;28;20384;-66
2022/09/11 06:59:52;;;;;;;15.00;11.23;;;17.90;99.90;;;;;;5034221;28;20041;-67
2022/09/11 07:02:18;;;;;;;12.40;10.70;;;18.00;99.90;;;;;;5034421;28;20037;-67
2022/09/11 07:04:43;;;;;;;13.15;11.40;;;18.40;99.90;;;;;;5034364;28;20553;-67
2022/09/11 07:07:09;;;;;;;12.15;10.60;;;18.60;99.90;;;;;;5034139;28;20034;-67
2022/09/11 07:09:35;;;;;;;14.00;11.45;;;18.50;99.90;;;;;;5033867;28;20033;-67
2022/09/11 07:12:00;;;;;;;11.98;10.77;;;18.80;99.90;;;;;;5032702;28;20041;-67
2022/09/11 07:14:26;;;;;;;12.27;9.90;;;19.20;99.90;;;;;;5032236;28;20037;-67
2022/09/11 07:16:53;;;;;;;10.82;9.70;;;19.10;99.90;;;;;;5031901;28;20069;-67
2022/09/11 07:19:19;;;;;;;11.30;9.32;;;19.50;99.90;;;;;;5033373;28;20083;-67
2022/09/11 07:21:45;;;;;;;11.10;10.00;;;19.50;99.90;;;;;;5032470;28;20041;-67
2022/09/11 07:24:11;;;;;;;12.65;9.15;;;19.90;99.90;;;;;;5032333;28;20490;-67
2022/09/11 07:26:36;;;;;;;10.85;7.85;;;20.10;99.90;;;;;;5032914;28;20034;-67
2022/09/11 07:29:02;;;;;;;11.25;8.15;;;20.40;99.90;;;;;;5032230;28;20049;-67
2022/09/11 07:31:31;;;;;;;9.57;8.10;;;20.50;99.90;;;;;;5032548;28;20036;-67
2022/09/11 07:33:57;;;;;;;10.88;8.43;;;20.60;99.90;;;;;;5032866;28;20042;-68
2022/09/11 07:36:25;;;;;;;11.20;8.27;;;20.80;99.90;;;;;;5032612;28;20494;-67
2022/09/11 07:38:53;;;;;;;9.07;7.45;;;21.00;99.90;;;;;;5015788;28;20051;-67
2022/09/11 07:41:20;;;;;;;9.52;7.07;;;21.00;99.90;;;;;;5016034;28;20041;-68
2022/09/11 07:43:50;;;;;;;7.85;6.30;;;21.00;99.90;;;;;;5034049;28;20037;-67
2022/09/11 07:46:16;;;;;;;8.60;6.97;;;21.40;99.90;;;;;;5033238;28;20049;-68
2022/09/11 07:48:41;;;;;;;11.75;7.57;;;21.40;99.90;;;;;;5015581;28;20415;-68
2022/09/11 07:51:12;;;;;;;8.25;6.10;;;21.60;99.90;;;;;;5033190;28;20037;-68
2022/09/11 07:53:46;;;;;;;9.07;6.00;;;21.80;99.90;;;;;;5015691;28;20034;-67
2022/09/11 07:56:18;;;;;;;9.68;6.32;;;21.70;99.90;;;;;;5012328;28;20112;-68
2022/09/11 07:58:45;;;;;;;9.55;6.35;;;21.80;99.90;;;;;;5013626;28;20133;-68
2022/09/11 08:01:16;;;;;;;9.40;7.63;;;22.00;99.90;;;;;;5021286;28;20072;-68
2022/09/11 08:03:43;;;;;;;9.90;7.72;;;22.20;99.90;;;;;;5027557;28;20048;-68
2022/09/11 08:06:12;;;;;;;10.80;7.05;;;22.00;99.90;;;;;;5032515;28;20061;-68
2022/09/11 08:08:39;;;;;;;9.57;7.03;;;21.80;99.90;;;;;;5024345;28;20069;-67
2022/09/11 08:11:13;;;;;;;8.18;6.90;;;21.30;99.90;;;;;;5032399;28;20041;-67
2022/09/11 08:13:39;;;;;;;11.38;6.68;;;21.10;99.90;;;;;;5032737;28;20073;-68
2022/09/11 08:16:05;;;;;;;8.70;6.75;;;21.00;99.90;;;;;;5032504;28;20048;-67
2022/09/11 08:18:31;;;;;;;9.50;6.50;;;20.90;99.90;;;;;;5032392;28;20457;-67
2022/09/11 08:21:02;;;;;;;10.07;6.95;;;20.70;99.90;;;;;;5032158;28;20033;-67
2022/09/11 08:23:30;;;;;;;9.27;6.18;;;20.20;99.90;;;;;;5021132;28;20092;-67
2022/09/11 08:26:02;;;;;;;8.60;6.03;;;20.30;99.90;;;;;;5027940;28;20049;-67
2022/09/11 08:28:27;;;;;;;9.77;6.50;;;19.90;99.90;;;;;;5032343;28;20037;-67
2022/09/11 08:30:57;;;;;;;8.75;6.50;;;19.90;99.90;;;;;;5031997;28;20043;-67
2022/09/11 08:33:23;;;;;;;9.35;6.40;;;19.80;99.90;;;;;;5032258;28;20041;-67
2022/09/11 08:35:52;;;;;;;8.25;5.65;;;19.80;99.90;;;;;;5014549;28;20033;-68
2022/09/11 08:38:18;;;;;;;9.35;7.05;;;19.60;99.90;;;;;;5052184;22;20041;-68
2022/09/11 08:40:45;;;;;;;10.73;6.47;;;19.70;99.90;;;;;;5051189;28;20041;-68
2022/09/11 08:43:25;;;;;;;13.23;7.40;;;19.70;99.90;;;;;;5050480;28;20557;-68
2022/09/11 08:45:55;;;;;;;14.43;8.43;;;19.60;99.90;;;;;;5051878;28;20048;-69
2022/09/11 08:48:31;;;;;;;7.07;6.32;;;19.60;99.90;;;;;;5052141;28;20120;-69
2022/09/11 08:50:57;;;;;;;7.97;5.60;;;19.60;99.90;;;;;;5052034;28;20033;-69
2022/09/11 08:53:22;;;;;;;8.85;6.03;;;20.00;99.90;;;;;;5051827;28;20094;-68
2022/09/11 08:56:02;;;;;;;9.57;5.57;;;20.10;99.90;;;;;;5051803;28;20483;-68
2022/09/11 08:58:39;;;;;;;8.88;4.75;;;20.30;99.90;;;;;;5051489;28;20065;-68
2022/09/11 09:01:23;;;;;;;8.20;4.78;;;20.60;99.90;;;;;;5051591;28;20041;-69
2022/09/11 09:04:13;;;;;;;6.97;4.63;;;20.40;99.90;;;;;;5051223;28;20072;-69
2022/09/11 09:07:04;;;;;;;7.60;5.45;;;20.30;99.90;;;;;;5052817;28;20041;-70
2022/09/11 09:09:38;;;;;;;8.13;4.93;;;20.00;99.90;;;;;;5060317;28;20040;-70
2022/09/11 09:12:20;;;;;;;10.32;5.72;;;19.90;99.90;;;;;;5051516;28;20040;-70
2022/09/11 09:14:55;;;;;;;8.85;5.50;;;19.70;99.90;;;;;;5051551;28;20037;-70
2022/09/11 09:17:26;;;;;;;10.75;7.20;;;19.50;99.90;;;;;;5051303;28;20056;-71
2022/09/11 09:19:59;;;;;;;7.88;6.20;;;19.70;99.90;;;;;;5051521;28;20041;-70
2022/09/11 09:22:57;;;;;;;;;;;19.40;99.90;;;;;;5052041;28;20037;-69
2022/09/11 09:25:23;;;;;;;9.45;7.28;;;19.60;99.90;;;;;;5042464;28;20198;-68
2022/09/11 09:27:59;;;;;;;9.45;6.65;;;19.30;99.90;;;;;;5048586;28;20506;-69
2022/09/11 09:30:28;;;;;;;7.43;6.68;;;19.50;99.90;;;;;;5051018;28;20080;-69
2022/09/11 09:33:01;;;;;;;6.55;5.82;;;19.30;99.90;;;;;;5051227;28;20089;-68
2022/09/11 09:35:47;;;;;;;7.05;6.32;;;19.50;99.90;;;;;;5051225;28;20041;-68
2022/09/11 09:38:21;;;;;;;7.13;6.43;;;19.50;99.90;;;;;;5051867;28;20045;-69
2022/09/11 09:40:52;;;;;;;7.72;5.90;;;19.30;99.90;;;;;;5050990;28;20032;-69
2022/09/11 09:43:55;;;;;;;10.05;6.55;;;19.30;99.90;;;;;;5050205;28;20120;-69
2022/09/11 09:46:28;;;;;;;8.18;5.25;;;19.60;99.90;;;;;;5051816;28;20099;-68
2022/09/11 09:48:54;;;;;;;7.32;6.35;;;19.50;99.90;;;;;;5051694;28;20037;-70
2022/09/11 09:51:20;;;;;;;4.93;4.30;;;19.50;99.90;;;;;;5050749;28;20126;-70
2022/09/11 09:54:00;;;;;;;7.38;4.18;;;19.50;99.90;;;;;;5049869;28;20479;-70
2022/09/11 09:56:29;;;;;;;7.72;3.95;;;19.80;99.90;;;;;;5050659;28;20045;-69
2022/09/11 09:59:07;;;;;;;7.40;3.55;;;20.00;99.90;;;;;;5049812;28;20163;-69
2022/09/11 10:01:45;;;;;;;8.07;3.63;;;20.20;99.90;;;;;;5050893;28;21058;-69
2022/09/11 10:04:13;;;;;;;9.60;3.75;;;20.50;99.90;;;;;;5049739;28;20053;-68
2022/09/11 10:06:39;;;;;;;7.20;2.88;;;20.60;99.90;;;;;;5050963;28;20048;-68
2022/09/11 10:09:05;;;;;;;6.53;2.95;;;20.80;99.90;;;;;;5050652;28;20049;-68
2022/09/11 10:11:30;;;;;;;8.25;3.08;;;21.00;99.90;;;;;;5050867;28;20037;-68
2022/09/11 10:13:56;;;;;;;5.35;2.70;;;21.10;99.90;;;;;;5051058;28;20491;-69
2022/09/11 10:16:26;;;;;;;4.55;2.17;;;21.20;99.90;;;;;;5052522;28;20446;-69
2022/09/11 10:18:54;;;;;;;6.15;2.70;;;21.10;99.90;;;;;;5053316;28;20076;-69
2022/09/11 10:21:29;;;;;;;2.83;1.80;;;21.10;99.90;;;;;;5054371;28;20069;-69
2022/09/11 10:24:00;;;;;;;4.15;2.28;;;21.00;99.90;;;;;;5055618;28;20040;-70
2022/09/11 10:26:33;;;;;;;5.80;1.88;;;21.00;99.90;;;;;;5054744;28;20120;-72
2022/09/11 10:29:23;;;;;;;4.40;2.05;;;20.90;99.90;;;;;;5055283;28;20371;-71
2022/09/11 10:32:04;;;;;;;5.47;2.47;;;20.80;99.90;;;;;;5056051;28;20037;-70
2022/09/11 10:34:37;;;;;;;3.78;2.22;;;20.80;99.90;;;;;;5055147;28;20655;-71
2022/09/11 10:37:18;;;;;;;4.70;2.30;;;20.80;99.90;;;;;;5055301;28;20120;-70
2022/09/11 10:39:45;;;;;;;4.68;2.10;;;20.70;99.90;;;;;;5054326;28;20095;-71
2022/09/11 10:42:26;;;;;;;5.20;2.45;;;20.70;99.90;;;;;;5054985;28;20037;-70
2022/09/11 10:45:04;;;;;;;3.95;2.30;;;20.70;99.90;;;;;;5054485;28;20044;-70
2022/09/11 10:47:31;;;;;;;4.85;2.10;;;20.60;99.90;;;;;;5054309;28;20041;-70
2022/09/11 10:50:17;;;;;;;3.03;2.08;;;20.60;99.90;;;;;;5053796;28;20072;-70
2022/09/11 10:53:21;;;;;;;5.28;2.60;;;20.20;99.90;;;;;;5054165;28;20123;-70
2022/09/11 10:55:59;;;;;;;5.03;2.72;;;20.20;99.90;;;;;;5053467;28;20053;-71
2022/09/11 10:58:32;;;;;;;4.65;2.83;;;19.90;99.90;;;;;;5054253;28;20120;-69
2022/09/11 11:00:57;;;;;;;6.38;3.17;;;19.70;99.90;;;;;;5053293;28;20551;-69
2022/09/11 11:03:25;;;;;;;7.43;3.53;;;19.50;99.90;;;;;;5053681;28;20151;-69
2022/09/11 11:06:22;;;;;;;6.43;4.10;;;19.40;99.90;;;;;;5054764;28;20037;-69
2022/09/11 11:08:57;;;;;;;6.53;4.03;;;19.30;99.90;;;;;;5054407;28;20045;-70
2022/09/11 11:11:31;;;;;;;6.75;4.35;;;18.90;99.90;;;;;;5052914;28;20091;-69
2022/09/11 11:13:56;;;;;;;10.30;5.82;;;18.90;99.90;;;;;;5054915;28;20029;-70
2022/09/11 11:17:03;;;;;;;11.02;5.78;;;18.80;99.90;;;;;;5054459;28;20041;-70
2022/09/11 11:19:43;;;;;;;6.88;5.03;;;18.80;99.90;;;;;;5031586;28;20042;-70
2022/09/11 11:22:23;;;;;;;7.85;5.47;;;18.90;99.90;;;;;;5031524;28;20515;-70
2022/09/11 11:25:26;;;;;;;9.40;5.53;;;18.70;99.90;;;;;;5043857;28;20060;-69
2022/09/11 11:27:59;;;;;;;7.38;5.65;;;18.80;99.90;;;;;;5040880;28;20044;-69
2022/09/11 11:30:35;;;;;;;7.53;5.93;;;18.90;99.90;;;;;;5052965;28;20099;-70
2022/09/11 11:33:20;;;;;;;10.18;7.20;;;19.00;99.90;;;;;;5054108;28;20040;-69
2022/09/11 11:35:48;;;;;;;8.95;6.30;;;19.00;99.90;;;;;;5054254;28;20037;-70
2022/09/11 11:38:17;;;;;;;8.15;6.57;;;19.10;99.90;;;;;;5053807;28;20080;-69
2022/09/11 11:40:49;;;;;;;8.52;6.20;;;18.80;99.90;;;;;;5052390;28;20549;-69
2022/09/11 11:43:20;;;;;;;7.73;7.03;;;18.90;99.90;;;;;;5054225;28;20043;-70
2022/09/11 11:45:48;;;;;;;11.48;7.35;;;19.00;99.90;;;;;;5054878;28;20041;-70
2022/09/11 11:48:17;;;;;;;7.72;6.93;;;19.20;99.90;;;;;;5053372;28;20052;-70
2022/09/11 11:51:03;;;;;;;6.35;5.35;;;19.40;99.90;;;;;;5054062;28;20052;-70
2022/09/11 11:53:48;;;;;;;6.97;6.38;;;19.40;99.90;;;;;;5054130;28;20395;-70
2022/09/11 11:56:29;;;;;;;9.18;6.90;;;19.20;99.90;;;;;;5054527;28;20119;-70
2022/09/11 11:59:11;;;;;;;8.07;5.72;;;19.40;99.90;;;;;;5053647;28;20036;-69
2022/09/11 12:01:47;;;;;;;7.95;6.35;;;19.70;99.90;;;;;;5052274;28;20396;-70
2022/09/11 12:04:34;;;;;;;6.60;5.35;;;19.60;99.90;;;;;;5052828;28;20033;-69
2022/09/11 12:07:02;;;;;;;7.07;5.55;;;19.80;99.90;;;;;;5052955;28;20149;-69
2022/09/11 12:09:30;;;;;;;4.25;3.85;;;19.90;99.90;;;;;;5053504;28;20037;-70
2022/09/11 12:12:02;;;;;;;5.57;4.40;;;19.90;99.90;;;;;;5054065;28;20041;-70
2022/09/11 12:14:33;;;;;;;8.40;5.28;;;19.90;99.90;;;;;;5054267;28;20037;-70
2022/09/11 12:17:23;;;;;;;7.45;4.20;;;20.00;99.90;;;;;;5053369;28;20116;-69
2022/09/11 12:20:10;;;;;;;6.80;4.43;;;20.20;99.90;;;;;;5053132;28;20037;-69
2022/09/11 12:22:47;;;;;;;6.43;4.32;;;20.20;99.90;;;;;;5053752;28;20107;-70
2022/09/11 12:25:22;;;;;;;8.52;3.58;;;20.20;99.90;;;;;;5052753;28;20130;-70
2022/09/11 12:27:47;;;;;;;9.55;5.35;;;20.30;99.90;;;;;;5053695;28;20076;-69
2022/09/11 12:30:16;;;;;;;8.57;4.40;;;20.30;99.90;;;;;;5053650;28;20133;-70
2022/09/11 12:32:52;;;;;;;6.22;4.60;;;20.30;99.90;;;;;;5053902;28;20068;-69
2022/09/11 12:35:29;;;;;;;3.83;1.70;;;20.40;99.90;;;;;;5052009;28;20051;-69
2022/09/11 12:38:13;;;;;;;3.28;1.40;;;20.40;99.90;;;;;;5053920;28;20405;-69
2022/09/11 12:40:57;;;;;;;3.55;3.08;;;20.50;99.90;;;;;;5053157;28;20521;-70
2022/09/11 12:43:35;;;;;;;5.60;3.85;;;20.60;99.90;;;;;;5052549;28;20124;-70
2022/09/11 12:46:02;;;;;;;5.25;2.92;;;20.60;99.90;;;;;;5052346;28;20049;-70
2022/09/11 12:48:45;;;;;;;3.53;1.83;;;20.50;99.90;;;;;;5053560;28;20033;-69
2022/09/11 12:51:24;;;;;;;3.72;2.10;;;20.60;99.90;;;;;;5052529;28;20033;-70
2022/09/11 12:53:59;;;;;;;5.85;2.35;;;20.60;99.90;;;;;;5052402;28;20029;-69
2022/09/11 12:56:26;;;;;;;2.60;1.95;;;20.80;99.90;;;;;;5052742;28;20432;-69
2022/09/11 12:58:58;;;;;;;3.25;1.65;;;20.80;99.70;;;;;;5052657;28;20041;-69